KOOA/OOA METAR and TAF weather

Enter ICAO airport designator
Station Type Date Time Source
KOOA METAR 2021/03/01 22:55 UTC NOAA

KOOA 012255Z AUTO 04007KT 10SM CLR 00/M04 A3038 RMK AO2 T00031037


Station Type Date Time Source
KOOA Decoded METAR 2021/03/01 22:55 UTC NOAA

Oskaloosa, Oskaloosa Municipal Airport, IA, United States (KOOA) 41-13-34N 092-29-37W
Mar 01, 2021 - 05:55 PM EST / 2021.03.01 2255 UTC
Wind: from the NE (040 degrees) at 8 MPH (7 KT):0
Visibility: 10 mile(s):0
Sky conditions: clear
Temperature: 32.5 F (0.3 C)
Windchill: 24 F (-4 C):1
Dew Point: 25.3 F (-3.7 C)
Relative Humidity: 74%
Pressure (altimeter): 30.38 in. Hg (1028 hPa)
ob: KOOA 012255Z AUTO 04007KT 10SM CLR 00/M04 A3038 RMK AO2 T00031037
cycle: 23

Station Type Date Time Source
KOOA TAF UTC NOAA

Error!

Example: see airport list